createdAt,value
2019-03-15T00:01:44.485Z,5.00
2019-03-15T00:04:13.518Z,5.00
2019-03-15T00:06:42.525Z,4.90
2019-03-15T00:09:11.528Z,5.00
2019-03-15T00:11:40.497Z,5.00
2019-03-15T00:14:09.445Z,5.00
2019-03-15T00:16:38.547Z,5.00
2019-03-15T00:19:07.548Z,5.10
2019-03-15T00:21:36.526Z,5.10
2019-03-15T00:24:05.487Z,5.10
2019-03-15T00:26:34.444Z,5.10
2019-03-15T00:29:03.540Z,5.10
2019-03-15T00:31:32.593Z,5.20
2019-03-15T00:34:01.776Z,5.00
2019-03-15T00:36:31.253Z,5.20
2019-03-15T00:39:00.365Z,5.20
2019-03-15T00:41:29.726Z,5.20
2019-03-15T00:43:58.891Z,5.20
2019-03-15T00:46:27.959Z,5.20
2019-03-15T00:48:57.040Z,5.20
2019-03-15T00:51:26.115Z,5.20
2019-03-15T00:53:55.288Z,5.30
2019-03-15T00:56:24.317Z,5.30
2019-03-15T00:58:53.448Z,5.30
2019-03-15T01:01:22.591Z,5.30
2019-03-15T01:03:51.748Z,5.30
2019-03-15T01:06:20.730Z,5.30
2019-03-15T01:08:49.800Z,5.40
2019-03-15T01:11:18.843Z,5.30
2019-03-15T01:13:47.994Z,5.30
2019-03-15T01:16:17.081Z,5.30
2019-03-15T01:18:46.199Z,5.30
2019-03-15T01:21:15.287Z,5.30
2019-03-15T01:23:44.307Z,5.30
2019-03-15T01:26:13.744Z,5.30
2019-03-15T01:28:42.895Z,5.30
2019-03-15T01:31:11.984Z,5.30
2019-03-15T01:33:40.991Z,5.20
2019-03-15T01:36:09.999Z,5.30
2019-03-15T01:38:39.086Z,5.20
2019-03-15T01:41:08.176Z,5.10
2019-03-15T01:43:38.451Z,5.10
2019-03-15T01:46:08.430Z,5.10
2019-03-15T01:48:37.530Z,5.00
2019-03-15T01:51:06.639Z,5.00
2019-03-15T01:53:35.733Z,5.00
2019-03-15T01:56:05.540Z,5.00
2019-03-15T01:58:34.713Z,5.00
2019-03-15T02:01:04.518Z,5.00
2019-03-15T02:03:33.799Z,5.10
2019-03-15T02:06:02.915Z,5.00
2019-03-15T02:08:31.996Z,5.10
2019-03-15T02:11:01.454Z,5.10
2019-03-15T02:13:30.611Z,5.10
2019-03-15T02:15:59.826Z,5.10
2019-03-15T02:18:29.018Z,5.10
2019-03-15T02:20:58.071Z,5.20
2019-03-15T02:23:27.061Z,5.20
2019-03-15T02:25:56.197Z,5.20
2019-03-15T02:28:25.214Z,5.20
2019-03-15T02:30:54.276Z,5.20
2019-03-15T02:33:23.356Z,5.30
2019-03-15T02:35:52.401Z,5.20
2019-03-15T02:38:21.511Z,5.20
2019-03-15T02:40:50.511Z,5.00
2019-03-15T02:43:19.595Z,5.10
2019-03-15T02:45:48.616Z,5.10
2019-03-15T02:48:17.796Z,5.20
2019-03-15T02:50:46.966Z,5.20
2019-03-15T02:53:16.069Z,5.30
2019-03-15T02:55:45.205Z,5.20
2019-03-15T02:58:14.236Z,5.20
2019-03-15T03:00:46.742Z,5.20
2019-03-15T03:03:15.938Z,5.20
2019-03-15T03:05:45.131Z,5.10
2019-03-15T03:08:14.613Z,5.20
2019-03-15T03:10:43.688Z,5.30
2019-03-15T03:13:12.873Z,5.30
2019-03-15T03:15:41.985Z,5.30
2019-03-15T03:18:11.854Z,5.30
2019-03-15T03:20:40.965Z,5.40
2019-03-15T03:23:10.027Z,5.40
2019-03-15T03:25:39.180Z,5.40
2019-03-15T03:28:08.216Z,5.40
2019-03-15T03:30:37.274Z,5.40
2019-03-15T03:33:06.400Z,5.50
2019-03-15T03:35:35.638Z,5.50
2019-03-15T03:38:04.769Z,5.50
2019-03-15T03:40:34.759Z,5.50
2019-03-15T03:43:03.862Z,5.50
2019-03-15T03:45:33.031Z,5.50
2019-03-15T03:48:02.192Z,5.50
2019-03-15T03:50:31.436Z,5.50
2019-03-15T03:53:00.568Z,5.60
2019-03-15T03:55:29.632Z,5.60
2019-03-15T03:57:58.751Z,5.60
2019-03-15T04:00:27.885Z,5.70
2019-03-15T04:02:57.188Z,5.70
2019-03-15T04:05:26.326Z,5.60
2019-03-15T04:07:55.373Z,5.60
2019-03-15T04:10:24.395Z,5.60
2019-03-15T04:12:53.475Z,5.70
2019-03-15T04:15:22.575Z,5.70
2019-03-15T04:17:51.589Z,5.80
2019-03-15T04:20:20.666Z,5.70
2019-03-15T04:22:49.699Z,5.70
2019-03-15T04:25:18.803Z,5.70
2019-03-15T04:27:48.020Z,5.70
2019-03-15T04:30:17.094Z,5.70
2019-03-15T04:32:46.101Z,5.60
2019-03-15T04:35:15.249Z,5.60
2019-03-15T04:37:44.359Z,5.70
2019-03-15T04:40:13.593Z,5.70
2019-03-15T04:42:42.720Z,5.60
2019-03-15T04:45:12.535Z,5.70
2019-03-15T04:47:43.591Z,5.60
2019-03-15T04:50:12.383Z,5.70
2019-03-15T04:52:41.512Z,5.60
2019-03-15T04:55:10.714Z,5.60
2019-03-15T04:57:39.669Z,5.50
2019-03-15T05:00:10.594Z,5.50
2019-03-15T05:02:39.801Z,5.50
2019-03-15T05:05:08.912Z,5.50
2019-03-15T05:07:38.137Z,5.50
2019-03-15T05:10:07.287Z,5.50
2019-03-15T05:12:36.444Z,5.50
2019-03-15T05:15:05.545Z,5.50
2019-03-15T05:17:34.645Z,5.50
2019-03-15T05:20:04.311Z,5.50
2019-03-15T05:22:33.439Z,4.40
2019-03-15T05:25:02.591Z,5.50
2019-03-15T05:27:31.735Z,5.50
2019-03-15T05:30:00.868Z,5.50
2019-03-15T05:32:31.158Z,5.40
2019-03-15T05:35:00.426Z,5.50
2019-03-15T05:37:29.574Z,5.40
2019-03-15T05:39:58.668Z,5.50
2019-03-15T05:42:27.770Z,5.40
2019-03-15T05:44:56.896Z,5.50
2019-03-15T05:47:25.891Z,5.40
2019-03-15T05:49:54.993Z,5.50
2019-03-15T05:52:23.946Z,5.50
2019-03-15T05:54:53.027Z,5.50
2019-03-15T05:57:22.181Z,5.40
2019-03-15T05:59:51.272Z,5.50
2019-03-15T06:02:20.259Z,5.50
2019-03-15T06:04:49.340Z,5.50
2019-03-15T06:07:18.499Z,5.50
2019-03-15T06:09:48.164Z,5.60
2019-03-15T06:12:17.251Z,5.50
2019-03-15T06:14:47.043Z,5.50
2019-03-15T06:17:16.245Z,5.60
2019-03-15T06:19:45.440Z,5.50
2019-03-15T06:22:14.566Z,5.50
2019-03-15T06:24:43.691Z,5.50
2019-03-15T06:27:12.724Z,5.40
2019-03-15T06:29:41.751Z,5.50
2019-03-15T06:32:10.826Z,5.50
2019-03-15T06:34:39.902Z,5.50
2019-03-15T06:37:09.172Z,5.50
2019-03-15T06:39:38.252Z,5.50
2019-03-15T06:42:07.435Z,5.50
2019-03-15T06:44:37.714Z,5.50
2019-03-15T06:47:07.056Z,5.40
2019-03-15T06:49:36.165Z,5.60
2019-03-15T06:52:05.316Z,5.60
2019-03-15T06:54:34.457Z,5.60
2019-03-15T06:57:03.640Z,5.60
2019-03-15T06:59:32.901Z,5.60
2019-03-15T07:02:02.131Z,5.50
2019-03-15T07:04:31.188Z,5.60
2019-03-15T07:07:00.309Z,5.70
2019-03-15T07:09:30.923Z,5.60
2019-03-15T07:12:09.469Z,5.70
2019-03-15T07:14:31.080Z,5.70
2019-03-15T07:17:00.198Z,5.70
2019-03-15T07:19:30.631Z,5.70
2019-03-15T07:21:59.999Z,5.70
2019-03-15T07:24:29.262Z,5.60
2019-03-15T07:27:12.299Z,5.80
2019-03-15T07:29:32.302Z,5.80
2019-03-15T07:32:01.310Z,5.80
2019-03-15T07:34:30.462Z,5.90
2019-03-15T07:36:59.616Z,5.90
2019-03-15T07:39:28.819Z,5.90
2019-03-15T07:41:57.962Z,5.90
2019-03-15T07:44:27.161Z,6.00
2019-03-15T07:46:56.399Z,6.00
2019-03-15T07:49:25.585Z,5.80
2019-03-15T07:51:54.705Z,5.90
2019-03-15T07:54:23.867Z,6.10
2019-03-15T07:56:53.107Z,6.10
2019-03-15T07:59:24.417Z,6.10
2019-03-15T08:01:53.546Z,6.10
2019-03-15T08:04:22.719Z,6.10
2019-03-15T08:06:51.830Z,6.20
2019-03-15T08:09:20.868Z,6.20
2019-03-15T08:11:50.031Z,6.30
2019-03-15T08:14:19.157Z,6.20
2019-03-15T08:16:48.164Z,6.30
2019-03-15T08:19:17.395Z,6.20
2019-03-15T08:21:46.736Z,6.30
2019-03-15T08:24:15.866Z,6.50
2019-03-15T08:26:44.845Z,6.50
2019-03-15T08:29:13.823Z,6.50
2019-03-15T08:31:42.920Z,6.50
2019-03-15T08:34:11.906Z,6.50
2019-03-15T08:36:40.922Z,6.70
2019-03-15T08:39:09.828Z,6.80
2019-03-15T08:41:38.964Z,6.90
2019-03-15T08:44:08.089Z,7.00
2019-03-15T08:46:37.214Z,7.10
2019-03-15T08:49:06.334Z,7.20
2019-03-15T08:51:35.495Z,7.30
2019-03-15T08:54:04.568Z,7.60
2019-03-15T08:56:33.582Z,7.80
2019-03-15T08:59:02.598Z,8.00
2019-03-15T09:01:31.613Z,8.00
2019-03-15T09:04:00.715Z,8.00
2019-03-15T09:06:29.886Z,8.10
2019-03-15T09:08:58.928Z,8.20
2019-03-15T09:11:27.985Z,8.20
2019-03-15T09:13:56.968Z,8.20
2019-03-15T09:16:26.070Z,8.30
2019-03-15T09:18:55.567Z,8.30
2019-03-15T09:21:24.737Z,8.40
2019-03-15T09:23:53.757Z,8.40
2019-03-15T09:26:22.814Z,8.50
2019-03-15T09:28:51.806Z,8.60
2019-03-15T09:31:20.836Z,8.50
2019-03-15T09:33:49.990Z,8.60
2019-03-15T09:36:19.084Z,8.50
2019-03-15T09:38:48.175Z,8.60
2019-03-15T09:41:30.468Z,8.60
2019-03-15T09:43:47.943Z,8.70
2019-03-15T09:46:17.289Z,8.70
2019-03-15T09:48:46.420Z,8.80
2019-03-15T09:51:15.489Z,8.80
2019-03-15T09:53:44.606Z,8.80
2019-03-15T09:56:13.732Z,8.90
2019-03-15T09:58:42.862Z,8.90
2019-03-15T10:01:12.503Z,9.00
2019-03-15T10:03:41.718Z,9.00
2019-03-15T10:06:15.646Z,9.00
2019-03-15T10:08:41.370Z,9.00
2019-03-15T10:11:10.361Z,9.00
2019-03-15T10:13:39.575Z,9.00
2019-03-15T10:16:08.793Z,9.10
2019-03-15T10:18:37.654Z,9.20
2019-03-15T10:21:09.105Z,9.30
2019-03-15T10:23:37.376Z,9.30
2019-03-15T10:26:06.470Z,9.50
2019-03-15T10:28:35.475Z,9.40
2019-03-15T10:31:04.526Z,9.30
2019-03-15T10:33:33.520Z,9.40
2019-03-15T10:36:02.616Z,9.40
2019-03-15T10:38:31.668Z,9.50
2019-03-15T10:41:01.402Z,9.50
2019-03-15T10:43:30.544Z,9.50
2019-03-15T10:45:59.851Z,9.40
2019-03-15T10:48:29.016Z,9.60
2019-03-15T10:50:58.258Z,9.50
2019-03-15T10:53:27.589Z,9.60
2019-03-15T10:56:00.516Z,9.50
2019-03-15T10:58:28.612Z,9.50
2019-03-15T11:00:57.940Z,9.70
2019-03-15T11:03:27.229Z,9.60
2019-03-15T11:05:56.701Z,9.70
2019-03-15T11:08:26.177Z,9.80
2019-03-15T11:10:56.836Z,9.90
2019-03-15T11:13:25.892Z,9.90
2019-03-15T11:15:55.140Z,9.70
2019-03-15T11:18:24.159Z,9.80
2019-03-15T11:20:53.483Z,9.80
2019-03-15T11:23:22.587Z,9.70
2019-03-15T11:25:51.810Z,9.80
2019-03-15T11:28:20.834Z,9.80
2019-03-15T11:30:49.930Z,9.90
2019-03-15T11:33:18.983Z,9.80
2019-03-15T11:35:48.002Z,9.80
2019-03-15T11:38:17.146Z,9.90
2019-03-15T11:40:46.502Z,9.80
2019-03-15T11:43:15.663Z,10.10
2019-03-15T11:45:44.667Z,10.00
2019-03-15T11:48:13.687Z,10.00
2019-03-15T11:50:42.716Z,10.10
2019-03-15T11:53:11.835Z,10.00
2019-03-15T11:55:40.932Z,10.10
2019-03-15T11:58:09.971Z,10.00
2019-03-15T12:00:39.381Z,10.10
2019-03-15T12:03:08.374Z,10.10
2019-03-15T12:05:37.530Z,10.10
2019-03-15T12:08:06.926Z,10.10
2019-03-15T12:10:38.798Z,10.20
2019-03-15T12:13:07.876Z,10.30
2019-03-15T12:15:37.126Z,10.30
2019-03-15T12:18:12.223Z,10.30
2019-03-15T12:20:41.371Z,10.50
2019-03-15T12:23:10.595Z,10.40
2019-03-15T12:25:39.800Z,10.40
2019-03-15T12:28:15.963Z,10.50
2019-03-15T12:30:47.757Z,10.60
2019-03-15T12:33:16.907Z,10.60
2019-03-15T12:35:45.936Z,10.50
2019-03-15T12:38:15.012Z,10.60
2019-03-15T12:40:44.007Z,10.50
2019-03-15T12:43:13.211Z,10.50
2019-03-15T12:45:42.193Z,10.50
2019-03-15T12:48:11.737Z,10.40
2019-03-15T12:50:40.882Z,10.40
2019-03-15T12:53:10.225Z,10.50
2019-03-15T12:55:39.265Z,10.40
2019-03-15T12:58:08.147Z,10.40
2019-03-15T13:00:37.500Z,10.50
2019-03-15T13:03:06.612Z,10.40
2019-03-15T13:05:35.798Z,10.40
2019-03-15T13:08:04.937Z,10.40
2019-03-15T13:10:34.060Z,10.40
2019-03-15T13:13:03.344Z,10.50
2019-03-15T13:15:32.375Z,10.50
2019-03-15T13:18:01.416Z,10.40
2019-03-15T13:20:30.447Z,10.50
2019-03-15T13:22:59.467Z,10.50
2019-03-15T13:25:28.475Z,10.50
2019-03-15T13:27:57.534Z,9.50
2019-03-15T13:30:26.579Z,10.30
2019-03-15T13:32:55.804Z,10.30
2019-03-15T13:35:24.891Z,10.30
2019-03-15T13:37:53.955Z,10.20
2019-03-15T13:40:23.051Z,10.20
2019-03-15T13:42:51.961Z,10.20
2019-03-15T13:45:20.980Z,10.10
2019-03-15T13:47:50.028Z,10.10
2019-03-15T13:50:19.279Z,10.20
2019-03-15T13:52:48.508Z,10.20
2019-03-15T13:55:17.684Z,9.80
2019-03-15T13:57:46.927Z,10.20
2019-03-15T14:00:16.127Z,10.20
2019-03-15T14:02:45.216Z,10.20
2019-03-15T14:05:20.489Z,10.20
2019-03-15T14:07:49.503Z,10.20
2019-03-15T14:10:18.855Z,10.10
2019-03-15T14:12:47.910Z,10.00
2019-03-15T14:15:16.988Z,10.10
2019-03-15T14:17:46.503Z,10.10
2019-03-15T14:20:15.492Z,10.10
2019-03-15T14:22:44.510Z,10.10
2019-03-15T14:25:13.623Z,10.00
2019-03-15T14:27:42.647Z,10.00
2019-03-15T14:30:12.302Z,10.00
2019-03-15T14:32:41.355Z,10.10
2019-03-15T14:35:10.420Z,10.00
2019-03-15T14:37:39.712Z,9.90
2019-03-15T14:40:08.962Z,10.00
2019-03-15T14:42:38.354Z,9.90
2019-03-15T14:45:07.831Z,9.90
2019-03-15T14:47:37.007Z,9.90
2019-03-15T14:50:06.325Z,9.90
2019-03-15T14:52:35.438Z,9.90
2019-03-15T14:55:04.733Z,9.80
2019-03-15T14:57:33.640Z,9.80
2019-03-15T15:00:02.797Z,9.90
2019-03-15T15:02:31.891Z,9.70
2019-03-15T15:05:01.030Z,9.80
2019-03-15T15:07:30.316Z,9.80
2019-03-15T15:09:59.361Z,9.80
2019-03-15T15:12:28.412Z,9.70
2019-03-15T15:14:57.777Z,9.80
2019-03-15T15:17:26.903Z,9.80
2019-03-15T15:19:55.982Z,9.80
2019-03-15T15:22:25.011Z,9.90
2019-03-15T15:24:54.089Z,9.80
2019-03-15T15:27:25.491Z,9.80
2019-03-15T15:29:53.938Z,9.70
2019-03-15T15:32:22.968Z,9.60
2019-03-15T15:34:52.084Z,9.70
2019-03-15T15:37:21.105Z,9.70
2019-03-15T15:39:50.205Z,9.70
2019-03-15T15:42:19.649Z,9.70
2019-03-15T15:44:48.714Z,9.60
2019-03-15T15:47:17.710Z,9.70
2019-03-15T15:49:46.692Z,9.70
2019-03-15T15:52:15.725Z,9.70
2019-03-15T15:54:44.842Z,9.70
2019-03-15T15:57:13.941Z,9.60
2019-03-15T15:59:43.015Z,9.60
2019-03-15T16:02:12.035Z,9.60
2019-03-15T16:04:41.070Z,9.60
2019-03-15T16:07:10.167Z,9.60
2019-03-15T16:09:39.514Z,9.60
2019-03-15T16:12:08.639Z,9.60
2019-03-15T16:14:38.036Z,9.60
2019-03-15T16:17:07.171Z,9.60
2019-03-15T16:19:39.393Z,9.60
2019-03-15T16:22:08.444Z,9.60
2019-03-15T16:24:37.652Z,9.60
2019-03-15T16:27:06.686Z,9.60
2019-03-15T16:29:38.847Z,9.60
2019-03-15T16:32:08.005Z,9.70
2019-03-15T16:34:37.358Z,9.60
2019-03-15T16:37:06.383Z,9.50
2019-03-15T16:39:35.659Z,9.60
2019-03-15T16:42:04.813Z,9.60
2019-03-15T16:44:33.935Z,9.60
2019-03-15T16:47:03.060Z,9.60
2019-03-15T16:49:32.077Z,9.60
2019-03-15T16:52:01.126Z,9.50
2019-03-15T16:54:30.636Z,9.60
2019-03-15T16:56:59.693Z,9.60
2019-03-15T16:59:28.717Z,9.50
2019-03-15T17:01:57.727Z,9.50
2019-03-15T17:04:26.856Z,9.40
2019-03-15T17:06:55.806Z,9.50
2019-03-15T17:09:24.985Z,9.50
2019-03-15T17:11:53.977Z,9.50
2019-03-15T17:14:25.734Z,9.50
2019-03-15T17:16:53.830Z,9.40
2019-03-15T17:19:22.892Z,9.50
2019-03-15T17:21:52.129Z,9.40
2019-03-15T17:24:21.492Z,9.40
2019-03-15T17:26:51.601Z,9.40
2019-03-15T17:29:21.185Z,9.40
2019-03-15T17:31:50.470Z,9.40
2019-03-15T17:34:19.705Z,9.40
2019-03-15T17:36:49.038Z,9.40
2019-03-15T17:39:18.330Z,9.40
2019-03-15T17:41:47.449Z,9.40
2019-03-15T17:44:16.763Z,9.50
2019-03-15T17:46:46.074Z,9.40
2019-03-15T17:49:15.359Z,9.50
2019-03-15T17:51:44.626Z,9.40
2019-03-15T17:54:13.755Z,9.40
2019-03-15T17:56:43.114Z,9.30
2019-03-15T17:59:13.009Z,9.40
2019-03-15T18:01:42.535Z,9.50
2019-03-15T18:04:12.903Z,9.30
2019-03-15T18:06:42.464Z,9.40
2019-03-15T18:09:11.819Z,9.40
2019-03-15T18:11:41.253Z,9.50
2019-03-15T18:14:10.644Z,9.40
2019-03-15T18:16:39.883Z,9.40
2019-03-15T18:19:09.211Z,10.40
2019-03-15T18:21:39.072Z,9.30
2019-03-15T18:24:08.729Z,9.40
2019-03-15T18:26:38.065Z,9.30
2019-03-15T18:29:07.271Z,9.40
2019-03-15T18:31:36.758Z,9.30
2019-03-15T18:34:06.653Z,9.40
2019-03-15T18:36:46.110Z,9.40
2019-03-15T18:39:17.754Z,9.40
2019-03-15T18:41:50.422Z,9.40
2019-03-15T18:44:22.411Z,9.40
2019-03-15T18:46:49.094Z,9.50
2019-03-15T18:49:18.789Z,9.40
2019-03-15T18:51:51.662Z,9.50
2019-03-15T18:54:20.773Z,9.40
2019-03-15T18:56:49.916Z,9.40
2019-03-15T18:59:19.013Z,9.40
2019-03-15T19:01:48.088Z,9.40
2019-03-15T19:04:17.097Z,9.50
2019-03-15T19:06:46.367Z,9.40
2019-03-15T19:09:16.094Z,9.40
2019-03-15T19:11:45.397Z,9.50
2019-03-15T19:14:14.826Z,9.50
2019-03-15T19:16:43.819Z,9.50
2019-03-15T19:19:12.903Z,9.50
2019-03-15T19:21:41.984Z,9.40
2019-03-15T19:24:11.129Z,9.40
2019-03-15T19:26:40.170Z,9.40
2019-03-15T19:29:09.199Z,9.50
2019-03-15T19:31:38.271Z,9.40
2019-03-15T19:34:07.324Z,9.40
2019-03-15T19:36:36.554Z,9.40
2019-03-15T19:39:11.046Z,9.40
2019-03-15T19:41:40.168Z,9.40
2019-03-15T19:44:09.678Z,9.50
2019-03-15T19:46:38.933Z,9.50
2019-03-15T19:49:08.095Z,9.40
2019-03-15T19:51:37.307Z,9.50
2019-03-15T19:54:06.566Z,9.50
2019-03-15T19:56:35.772Z,9.50
2019-03-15T19:59:05.524Z,9.50
2019-03-15T20:01:35.508Z,9.40
2019-03-15T20:04:04.740Z,9.50
2019-03-15T20:06:33.867Z,9.50
2019-03-15T20:09:04.878Z,9.50
2019-03-15T20:11:34.100Z,9.50
2019-03-15T20:14:06.461Z,9.50
2019-03-15T20:16:35.720Z,9.50
2019-03-15T20:19:05.220Z,9.40
2019-03-15T20:21:34.448Z,9.40
2019-03-15T20:24:03.677Z,9.40
2019-03-15T20:26:32.778Z,9.50
2019-03-15T20:29:01.946Z,9.40
2019-03-15T20:31:31.206Z,9.40
2019-03-15T20:34:00.331Z,9.40
2019-03-15T20:36:29.687Z,9.40
2019-03-15T20:38:58.919Z,9.40
2019-03-15T20:41:28.068Z,9.30
2019-03-15T20:44:00.433Z,9.40
2019-03-15T20:46:35.682Z,9.30
2019-03-15T20:48:59.970Z,9.40
2019-03-15T20:51:29.099Z,9.40
2019-03-15T20:53:58.469Z,9.30
2019-03-15T20:56:27.977Z,9.50
2019-03-15T20:58:57.163Z,9.40
2019-03-15T21:01:26.525Z,9.40
2019-03-15T21:03:56.491Z,9.40
2019-03-15T21:06:25.878Z,9.40
2019-03-15T21:08:55.145Z,9.40
2019-03-15T21:11:24.337Z,9.50
2019-03-15T21:13:53.553Z,9.50
2019-03-15T21:16:22.812Z,9.30
2019-03-15T21:18:52.377Z,9.40
2019-03-15T21:21:21.591Z,9.40
2019-03-15T21:23:50.840Z,9.30
2019-03-15T21:26:20.006Z,9.30
2019-03-15T21:28:49.097Z,9.40
2019-03-15T21:31:18.325Z,9.30
2019-03-15T21:33:47.474Z,9.30
2019-03-15T21:36:16.553Z,7.10
2019-03-15T21:38:48.743Z,9.30
2019-03-15T21:41:18.056Z,9.20
2019-03-15T21:43:47.159Z,9.20
2019-03-15T21:46:16.233Z,9.30
2019-03-15T21:48:45.441Z,9.30
2019-03-15T21:51:14.646Z,9.30
2019-03-15T21:53:43.744Z,9.40
2019-03-15T21:56:12.810Z,9.30
2019-03-15T21:58:41.951Z,9.20
2019-03-15T22:01:11.025Z,9.20
2019-03-15T22:03:40.113Z,9.30
2019-03-15T22:06:09.117Z,9.20
2019-03-15T22:08:38.224Z,9.30
2019-03-15T22:11:20.114Z,9.30
2019-03-15T22:13:38.313Z,9.20
2019-03-15T22:16:07.380Z,9.20
2019-03-15T22:18:36.358Z,9.20
2019-03-15T22:21:05.444Z,9.20
2019-03-15T22:23:34.901Z,9.20
2019-03-15T22:26:03.951Z,9.30
2019-03-15T22:28:33.131Z,9.20
2019-03-15T22:31:15.509Z,9.30
2019-03-15T22:33:33.259Z,9.30
2019-03-15T22:36:02.380Z,9.30
2019-03-15T22:38:32.139Z,9.30
2019-03-15T22:41:01.121Z,9.20
2019-03-15T22:43:30.124Z,9.20
2019-03-15T22:45:59.279Z,9.20
2019-03-15T22:48:28.476Z,9.30
2019-03-15T22:50:57.500Z,9.20
2019-03-15T22:53:26.674Z,9.20
2019-03-15T22:55:58.758Z,9.20
2019-03-15T22:58:27.730Z,9.10
2019-03-15T23:00:56.774Z,9.10
2019-03-15T23:03:25.815Z,9.10
2019-03-15T23:05:54.865Z,9.20
2019-03-15T23:08:24.008Z,9.10
2019-03-15T23:10:53.092Z,9.10
2019-03-15T23:13:22.497Z,9.10
2019-03-15T23:15:51.517Z,9.20
2019-03-15T23:18:20.584Z,9.20
2019-03-15T23:20:49.639Z,9.20
2019-03-15T23:23:23.739Z,9.10
2019-03-15T23:25:49.599Z,9.10
2019-03-15T23:28:18.713Z,9.10
2019-03-15T23:30:47.661Z,9.10
2019-03-15T23:33:16.803Z,9.10
2019-03-15T23:35:53.756Z,9.10
2019-03-15T23:38:16.596Z,9.10
2019-03-15T23:40:46.949Z,9.10
2019-03-15T23:43:15.912Z,9.00
2019-03-15T23:45:45.013Z,9.10
2019-03-15T23:48:13.977Z,9.20
2019-03-15T23:50:43.377Z,9.10
2019-03-15T23:53:12.415Z,9.00
2019-03-15T23:55:41.418Z,9.10
2019-03-15T23:58:10.477Z,9.00
